createdAt,value
2022-08-16T00:00:21.987Z,99135.75
2022-08-16T00:02:49.670Z,99127.75
2022-08-16T00:05:16.530Z,99126.19
2022-08-16T00:07:45.638Z,99123.19
2022-08-16T00:10:20.763Z,99129.81
2022-08-16T00:12:48.325Z,99133.78
2022-08-16T00:15:51.626Z,99139.47
2022-08-16T00:18:17.739Z,99128.09
2022-08-16T00:20:48.146Z,99139.03
2022-08-16T00:23:17.752Z,99139.31
2022-08-16T00:26:33.786Z,99136.97
2022-08-16T00:28:37.747Z,99139.78
2022-08-16T00:31:06.432Z,99144.34
2022-08-16T00:33:35.633Z,99140.00
2022-08-16T00:36:02.148Z,99147.25
2022-08-16T00:38:40.961Z,99143.88
2022-08-16T00:41:11.378Z,99149.41
2022-08-16T00:43:43.216Z,99153.56
2022-08-16T00:46:34.587Z,99145.19
2022-08-16T00:49:17.599Z,99144.56
2022-08-16T00:51:46.205Z,99134.31
2022-08-16T00:54:13.357Z,99147.09
2022-08-16T00:56:57.194Z,99147.44
2022-08-16T00:59:29.156Z,99152.25
2022-08-16T01:01:56.382Z,99159.53
2022-08-16T01:04:30.375Z,99159.84
2022-08-16T01:07:02.242Z,99157.44
2022-08-16T01:09:33.765Z,99156.91
2022-08-16T01:12:03.512Z,99159.94
2022-08-16T01:14:37.524Z,99163.00
2022-08-16T01:17:08.425Z,99160.78
2022-08-16T01:19:40.891Z,99163.50
2022-08-16T01:22:48.645Z,99170.97
2022-08-16T01:25:11.052Z,99163.25
2022-08-16T01:27:43.885Z,99165.31
2022-08-16T01:30:27.798Z,99167.25
2022-08-16T01:33:02.889Z,99167.34
2022-08-16T01:35:58.821Z,99168.03
2022-08-16T01:38:30.891Z,99163.00
2022-08-16T01:41:19.993Z,99170.31
2022-08-16T01:43:53.589Z,99159.94
2022-08-16T01:46:37.565Z,99157.34
2022-08-16T01:49:18.598Z,99158.50
2022-08-16T01:51:47.377Z,99157.00
2022-08-16T01:54:15.379Z,99156.94
2022-08-16T01:56:42.082Z,99162.56
2022-08-16T01:59:15.968Z,99166.25
2022-08-16T02:01:49.531Z,99167.03
2022-08-16T02:04:47.991Z,99169.63
2022-08-16T02:07:08.803Z,99166.25
2022-08-16T02:09:39.936Z,99171.00
2022-08-16T02:12:50.596Z,99163.38
2022-08-16T02:14:55.764Z,99171.56
2022-08-16T02:17:22.597Z,99182.38
2022-08-16T02:19:58.745Z,99179.78
2022-08-16T02:22:34.161Z,99183.53
2022-08-16T02:25:08.342Z,99181.09
2022-08-16T02:27:37.086Z,99183.81
2022-08-16T02:30:07.824Z,99178.50
2022-08-16T02:32:49.850Z,99181.28
2022-08-16T02:35:18.313Z,99176.19
2022-08-16T02:37:52.562Z,99175.97
2022-08-16T02:40:21.152Z,99184.09
2022-08-16T02:42:50.717Z,99183.31
2022-08-16T02:45:20.380Z,99179.94
2022-08-16T02:48:00.619Z,99176.66
2022-08-16T02:50:54.814Z,99174.63
2022-08-16T02:53:24.605Z,99174.06
2022-08-16T02:55:53.672Z,99169.66
2022-08-16T02:58:24.958Z,99177.59
2022-08-16T03:00:56.042Z,99173.31
2022-08-16T03:03:25.029Z,99165.63
2022-08-16T03:05:53.269Z,99174.75
2022-08-16T03:08:52.058Z,99177.28
2022-08-16T03:11:16.447Z,99168.47
2022-08-16T03:13:51.282Z,99172.03
2022-08-16T03:16:38.222Z,99178.41
2022-08-16T03:19:08.333Z,99179.50
2022-08-16T03:21:37.792Z,99182.34
2022-08-16T03:24:29.446Z,99186.66
2022-08-16T03:26:53.300Z,99190.47
2022-08-16T03:29:24.831Z,99195.13
2022-08-16T03:31:52.475Z,99191.72
2022-08-16T03:34:19.334Z,99191.78
2022-08-16T03:36:47.407Z,99196.31
2022-08-16T03:39:15.175Z,99199.13
2022-08-16T03:41:50.162Z,99204.56
2022-08-16T03:44:44.942Z,99200.31
2022-08-16T03:47:04.847Z,99211.22
2022-08-16T03:49:37.359Z,99216.72
2022-08-16T03:52:04.434Z,99223.00
2022-08-16T03:54:30.992Z,99222.91
2022-08-16T03:56:58.818Z,99225.31
2022-08-16T03:59:25.653Z,99221.72
2022-08-16T04:01:56.137Z,99226.84
2022-08-16T04:04:32.323Z,99219.00
2022-08-16T04:07:00.592Z,99228.31
2022-08-16T04:09:30.778Z,99234.63
2022-08-16T04:12:10.631Z,99235.44
2022-08-16T04:14:46.335Z,99240.13
2022-08-16T04:17:15.625Z,99239.22
2022-08-16T04:19:45.596Z,99248.31
2022-08-16T04:22:13.182Z,99246.03
2022-08-16T04:24:39.855Z,99255.75
2022-08-16T04:27:09.067Z,99270.22
2022-08-16T04:29:43.967Z,99272.53
2022-08-16T04:32:13.846Z,99272.97
2022-08-16T04:34:40.571Z,99271.50
2022-08-16T04:37:07.570Z,99281.00
2022-08-16T04:39:46.545Z,99283.66
2022-08-16T04:42:15.901Z,99290.69
2022-08-16T04:44:54.480Z,99294.94
2022-08-16T04:47:31.325Z,99292.19
2022-08-16T04:49:58.634Z,99299.84
2022-08-16T04:52:32.784Z,99287.72
2022-08-16T04:55:07.383Z,99292.84
2022-08-16T04:57:34.628Z,99298.56
2022-08-16T05:00:30.711Z,99297.50
2022-08-16T05:02:54.789Z,99300.94
2022-08-16T05:05:23.396Z,99305.59
2022-08-16T05:07:58.537Z,99297.81
2022-08-16T05:10:29.825Z,99302.88
2022-08-16T05:12:58.420Z,99311.78
2022-08-16T05:15:25.372Z,99307.38
2022-08-16T05:17:58.758Z,99313.91
2022-08-16T05:20:35.229Z,99310.38
2022-08-16T05:23:11.562Z,99315.06
2022-08-16T05:25:41.024Z,99312.81
2022-08-16T05:28:14.342Z,99317.25
2022-08-16T05:30:40.881Z,99324.28
2022-08-16T05:33:16.419Z,99324.94
2022-08-16T05:35:55.665Z,99328.81
2022-08-16T05:38:33.456Z,99328.25
2022-08-16T05:41:09.541Z,99325.53
2022-08-16T05:43:43.454Z,99334.09
2022-08-16T05:46:28.701Z,99342.84
2022-08-16T05:49:00.105Z,99342.25
2022-08-16T05:51:38.823Z,99349.25
2022-08-16T05:54:11.491Z,99348.81
2022-08-16T05:56:41.402Z,99345.94
2022-08-16T05:59:09.724Z,99349.50
2022-08-16T06:01:39.039Z,99344.44
2022-08-16T06:04:12.812Z,99348.44
2022-08-16T06:06:43.432Z,99351.50
2022-08-16T06:09:25.190Z,99348.69
2022-08-16T06:11:52.188Z,99351.19
2022-08-16T06:14:19.177Z,99345.72
2022-08-16T06:16:50.578Z,99345.53
2022-08-16T06:19:17.821Z,99356.28
2022-08-16T06:21:44.750Z,99350.16
2022-08-16T06:24:53.455Z,99352.56
2022-08-16T06:26:58.545Z,99362.91
2022-08-16T06:29:25.706Z,99368.94
2022-08-16T06:31:53.601Z,99372.13
2022-08-16T06:34:31.575Z,99380.75
2022-08-16T06:37:07.741Z,99375.81
2022-08-16T06:39:34.551Z,99375.09
2022-08-16T06:42:18.095Z,99383.03
2022-08-16T06:44:45.090Z,99381.50
2022-08-16T06:47:13.033Z,99381.69
2022-08-16T06:49:53.030Z,99383.91
2022-08-16T06:53:09.123Z,99383.31
2022-08-16T06:55:13.100Z,99394.66
2022-08-16T06:57:40.728Z,99395.53
2022-08-16T07:00:24.476Z,99397.94
2022-08-16T07:02:53.631Z,99404.38
2022-08-16T07:05:21.166Z,99398.22
2022-08-16T07:07:54.155Z,99398.13
2022-08-16T07:10:26.651Z,99399.94
2022-08-16T07:12:53.628Z,99402.53
2022-08-16T07:15:30.209Z,99394.47
2022-08-16T07:17:56.693Z,99404.44
2022-08-16T07:20:35.295Z,99402.50
2022-08-16T07:23:13.092Z,99401.53
2022-08-16T07:25:40.681Z,99402.16
2022-08-16T07:28:11.762Z,99403.03
2022-08-16T07:30:46.532Z,99394.63
2022-08-16T07:33:17.202Z,99403.19
2022-08-16T07:36:02.771Z,99403.28
2022-08-16T07:38:33.631Z,99401.09
2022-08-16T07:41:01.876Z,99401.53
2022-08-16T07:43:36.075Z,99404.06
2022-08-16T07:46:07.362Z,99398.06
2022-08-16T07:48:55.145Z,99403.69
2022-08-16T07:51:21.810Z,99399.78
2022-08-16T07:54:02.502Z,99408.03
2022-08-16T07:56:37.090Z,99411.84
2022-08-16T07:59:05.027Z,99409.94
2022-08-16T08:01:32.022Z,99406.47
2022-08-16T08:03:59.136Z,99404.63
2022-08-16T08:06:31.333Z,99413.31
2022-08-16T08:08:59.373Z,99417.09
2022-08-16T08:11:28.338Z,99422.84
2022-08-16T08:13:56.689Z,99418.78
2022-08-16T08:16:30.696Z,99430.53
2022-08-16T08:19:01.117Z,99429.53
2022-08-16T08:21:58.395Z,99430.31
2022-08-16T08:24:17.655Z,99428.34
2022-08-16T08:26:44.566Z,99427.31
2022-08-16T08:29:23.084Z,99429.69
2022-08-16T08:31:52.867Z,99440.25
2022-08-16T08:34:21.176Z,99435.25
2022-08-16T08:36:48.947Z,99445.25
2022-08-16T08:39:21.077Z,99440.25
2022-08-16T08:41:49.325Z,99442.63
2022-08-16T08:44:28.803Z,99458.22
2022-08-16T08:47:01.515Z,99450.28
2022-08-16T08:49:46.191Z,99452.53
2022-08-16T08:52:13.801Z,99457.75
2022-08-16T08:55:04.940Z,99458.47
2022-08-16T08:57:36.603Z,99455.84
2022-08-16T09:00:13.268Z,99448.84
2022-08-16T09:02:51.806Z,99454.34
2022-08-16T09:05:20.879Z,99448.66
2022-08-16T09:08:00.837Z,99449.03
2022-08-16T09:10:30.198Z,99449.53
2022-08-16T09:12:58.432Z,99449.16
2022-08-16T09:15:26.442Z,99447.47
2022-08-16T09:18:00.153Z,99446.22
2022-08-16T09:20:30.209Z,99458.69
2022-08-16T09:22:58.027Z,99456.59
2022-08-16T09:25:26.247Z,99453.59
2022-08-16T09:28:02.168Z,99452.91
2022-08-16T09:30:33.483Z,99464.81
2022-08-16T09:33:02.224Z,99465.50
2022-08-16T09:35:30.676Z,99453.69
2022-08-16T09:38:00.430Z,99457.03
2022-08-16T09:40:32.553Z,99455.78
2022-08-16T09:43:00.032Z,99459.13
2022-08-16T09:45:28.973Z,99461.47
2022-08-16T09:47:58.290Z,99463.16
2022-08-16T09:50:33.176Z,99458.66
2022-08-16T09:53:08.368Z,99458.09
2022-08-16T09:55:44.933Z,99458.03
2022-08-16T09:58:39.018Z,99457.00
2022-08-16T10:01:02.253Z,99462.41
2022-08-16T10:03:30.505Z,99456.41
2022-08-16T10:05:57.666Z,99452.19
2022-08-16T10:08:26.330Z,99457.88
2022-08-16T10:11:12.261Z,99455.97
2022-08-16T10:13:39.563Z,99451.72
2022-08-16T10:18:56.147Z,99465.00
2022-08-16T10:21:24.333Z,99466.38
2022-08-16T10:23:56.121Z,99459.59
2022-08-16T10:27:20.233Z,99460.25
2022-08-16T10:29:11.570Z,99462.09
2022-08-16T10:31:45.441Z,99467.59
2022-08-16T10:34:31.795Z,99464.44
2022-08-16T10:37:00.492Z,99459.22
2022-08-16T10:39:27.522Z,99458.63
2022-08-16T10:42:08.653Z,99458.22
2022-08-16T10:44:35.331Z,99464.44
2022-08-16T10:47:02.342Z,99461.25
2022-08-16T10:49:29.417Z,99460.81
2022-08-16T10:52:01.374Z,99462.72
2022-08-16T10:54:30.982Z,99467.06
2022-08-16T10:56:59.603Z,99469.50
2022-08-16T10:59:39.027Z,99459.38
2022-08-16T11:02:57.560Z,99456.94
2022-08-16T11:05:09.401Z,99456.44
2022-08-16T11:07:51.474Z,99460.66
2022-08-16T11:16:26.595Z,99458.41
2022-08-16T11:19:05.438Z,99457.41
2022-08-16T11:22:10.905Z,99458.19
2022-08-16T11:24:39.566Z,99464.03
2022-08-16T11:27:19.651Z,99454.22
2022-08-16T11:29:52.161Z,99449.91
2022-08-16T11:32:29.937Z,99454.41
2022-08-16T11:35:15.971Z,99457.78
2022-08-16T11:38:23.621Z,99459.03
2022-08-16T11:40:58.165Z,99468.41
2022-08-16T11:43:28.150Z,99460.31
2022-08-16T11:45:57.128Z,99458.06
2022-08-16T11:48:25.856Z,99457.06
2022-08-16T11:50:52.610Z,99459.69
2022-08-16T11:53:20.233Z,99464.34
2022-08-16T11:55:50.630Z,99465.13
2022-08-16T11:58:26.053Z,99462.31
2022-08-16T12:00:57.616Z,99450.31
2022-08-16T12:03:34.288Z,99452.34
2022-08-16T12:06:25.468Z,99450.44
2022-08-16T12:09:02.175Z,99441.63
2022-08-16T12:11:31.701Z,99437.88
2022-08-16T12:14:00.163Z,99435.84
2022-08-16T12:16:31.319Z,99432.25
2022-08-16T12:19:02.432Z,99435.66
2022-08-16T12:21:36.041Z,99429.47
2022-08-16T12:24:17.615Z,99434.97
2022-08-16T12:26:44.318Z,99431.44
2022-08-16T12:29:11.317Z,99433.25
2022-08-16T12:31:38.955Z,99424.41
2022-08-16T12:34:28.804Z,99423.72
2022-08-16T12:36:55.815Z,99426.78
2022-08-16T12:39:22.378Z,99420.53
2022-08-16T12:41:49.887Z,99420.66
2022-08-16T12:44:20.034Z,99412.63
2022-08-16T12:47:06.744Z,99410.69
2022-08-16T12:49:33.365Z,99414.34
2022-08-16T12:52:10.527Z,99408.38
2022-08-16T12:54:57.693Z,99398.50
2022-08-16T12:57:25.521Z,99406.81
2022-08-16T13:00:07.861Z,99406.50
2022-08-16T13:02:46.719Z,99401.91
2022-08-16T13:05:14.400Z,99406.56
2022-08-16T13:07:45.128Z,99402.72
2022-08-16T13:10:21.251Z,99401.78
2022-08-16T13:13:05.712Z,99399.22
2022-08-16T13:15:32.376Z,99393.25
2022-08-16T13:18:26.866Z,99400.78
2022-08-16T13:20:51.898Z,99398.53
2022-08-16T13:23:18.574Z,99399.78
2022-08-16T13:25:49.677Z,99401.06
2022-08-16T13:28:18.524Z,99399.22
2022-08-16T13:30:55.260Z,99391.09
2022-08-16T13:33:30.080Z,99393.63
2022-08-16T13:35:59.224Z,99392.88
2022-08-16T13:38:30.015Z,99392.59
2022-08-16T13:40:59.723Z,99385.16
2022-08-16T13:43:27.329Z,99389.47
2022-08-16T13:45:56.312Z,99384.22
2022-08-16T13:48:26.397Z,99376.91
2022-08-16T13:51:10.050Z,99375.38
2022-08-16T13:53:44.234Z,99379.66
2022-08-16T13:56:10.926Z,99371.69
2022-08-16T13:58:50.714Z,99373.97
2022-08-16T14:01:22.538Z,99371.22
2022-08-16T14:03:49.144Z,99365.56
2022-08-16T14:06:15.985Z,99360.09
2022-08-16T14:08:45.593Z,99363.00
2022-08-16T14:11:26.910Z,99363.84
2022-08-16T14:13:55.739Z,99359.06
2022-08-16T14:16:24.585Z,99359.44
2022-08-16T14:19:00.503Z,99357.22
2022-08-16T14:21:34.873Z,99365.09
2022-08-16T14:24:02.713Z,99358.84
2022-08-16T14:26:34.672Z,99360.06
2022-08-16T14:29:03.653Z,99372.00
2022-08-16T14:31:31.763Z,99373.16
2022-08-16T14:33:59.128Z,99365.69
2022-08-16T14:36:29.955Z,99375.72
2022-08-16T14:39:00.716Z,99365.13
2022-08-16T14:41:28.809Z,99364.75
2022-08-16T14:43:56.111Z,99370.22
2022-08-16T14:46:22.682Z,99378.88
2022-08-16T14:48:49.169Z,99374.13
2022-08-16T14:51:16.057Z,99379.44
2022-08-16T14:53:45.467Z,99371.38
2022-08-16T14:56:38.272Z,99378.84
2022-08-16T14:59:02.825Z,99369.28
2022-08-16T15:01:58.179Z,99383.06
2022-08-16T15:04:32.394Z,99383.44
2022-08-16T15:07:03.404Z,99379.16
2022-08-16T15:09:31.846Z,99382.88
2022-08-16T15:12:08.595Z,99376.56
2022-08-16T15:14:55.738Z,99383.47
2022-08-16T15:17:33.850Z,99375.56
2022-08-16T15:20:08.763Z,99375.03
2022-08-16T15:22:45.158Z,99374.59
2022-08-16T15:25:18.935Z,99380.09
2022-08-16T15:27:54.853Z,99387.13
2022-08-16T15:30:58.088Z,99391.25
2022-08-16T15:33:15.289Z,99382.50
2022-08-16T15:35:44.779Z,99376.38
2022-08-16T15:38:54.968Z,99386.34
2022-08-16T15:40:59.127Z,99375.53
2022-08-16T15:43:27.221Z,99370.09
2022-08-16T15:46:54.286Z,99369.28
2022-08-16T15:49:12.756Z,99383.28
2022-08-16T15:51:41.237Z,99372.69
2022-08-16T15:54:29.056Z,99370.47
2022-08-16T15:57:00.317Z,99381.84
2022-08-16T15:59:48.131Z,99377.44
2022-08-16T16:02:27.333Z,99378.41
2022-08-16T16:04:54.787Z,99385.25
2022-08-16T16:07:22.252Z,99387.53
2022-08-16T16:09:48.804Z,99382.53
2022-08-16T16:12:51.548Z,99393.28
2022-08-16T16:15:06.505Z,99393.13
2022-08-16T16:17:33.977Z,99391.63
2022-08-16T16:20:04.070Z,99393.50
2022-08-16T16:22:31.752Z,99394.59
2022-08-16T16:24:58.248Z,99395.09
2022-08-16T16:27:25.314Z,99401.59
2022-08-16T16:29:58.084Z,99402.97
2022-08-16T16:32:34.258Z,99400.75
2022-08-16T16:35:03.084Z,99399.94
2022-08-16T16:37:31.210Z,99398.44
2022-08-16T16:39:58.778Z,99405.97
2022-08-16T16:42:30.027Z,99405.84
2022-08-16T16:45:01.597Z,99415.19
2022-08-16T16:47:30.045Z,99405.88
2022-08-16T16:50:09.272Z,99406.47
2022-08-16T16:52:44.286Z,99408.63
2022-08-16T16:55:13.553Z,99408.63
2022-08-16T16:58:00.768Z,99407.19
2022-08-16T17:00:37.559Z,99404.06
2022-08-16T17:03:06.342Z,99412.38
2022-08-16T17:05:44.236Z,99407.06
2022-08-16T17:08:27.192Z,99402.63
2022-08-16T17:10:55.676Z,99408.06
2022-08-16T17:13:25.731Z,99413.47
2022-08-16T17:15:55.137Z,99417.88
2022-08-16T17:19:17.300Z,99413.44
2022-08-16T17:21:09.848Z,99424.22
2022-08-16T17:23:59.682Z,99423.19
2022-08-16T17:26:29.906Z,99429.53
2022-08-16T17:29:02.735Z,99425.81
2022-08-16T17:31:41.015Z,99427.63
2022-08-16T17:34:30.522Z,99430.16
2022-08-16T17:37:00.668Z,99431.69
2022-08-16T17:39:33.487Z,99429.50
2022-08-16T17:42:08.087Z,99430.28
2022-08-16T17:44:35.014Z,99428.34
2022-08-16T17:47:01.556Z,99435.56
2022-08-16T17:49:28.180Z,99427.41
2022-08-16T17:51:54.663Z,99431.72
2022-08-16T17:54:30.816Z,99430.66
2022-08-16T17:57:01.240Z,99431.47
2022-08-16T17:59:28.940Z,99433.06
2022-08-16T18:01:56.256Z,99429.25
2022-08-16T18:04:45.259Z,99422.91
2022-08-16T18:07:10.446Z,99428.34
2022-08-16T18:09:41.075Z,99430.22
2022-08-16T18:12:44.182Z,99428.50
2022-08-16T18:15:08.429Z,99434.06
2022-08-16T18:17:35.011Z,99427.03
2022-08-16T18:20:02.255Z,99436.88
2022-08-16T18:22:31.116Z,99433.44
2022-08-16T18:24:58.123Z,99443.38
2022-08-16T18:27:25.991Z,99447.75
2022-08-16T18:29:53.315Z,99445.13
2022-08-16T18:32:24.977Z,99451.97
2022-08-16T18:34:54.519Z,99446.44
2022-08-16T18:37:23.283Z,99459.03
2022-08-16T18:39:50.139Z,99448.09
2022-08-16T18:42:16.811Z,99444.47
2022-08-16T18:44:44.331Z,99443.66
2022-08-16T18:47:11.437Z,99449.09
2022-08-16T18:49:38.478Z,99444.59
2022-08-16T18:52:05.974Z,99442.72
2022-08-16T18:54:33.867Z,99443.63
2022-08-16T18:57:20.391Z,99443.84
2022-08-16T18:59:46.884Z,99447.97
2022-08-16T19:02:56.217Z,99455.06
2022-08-16T19:05:12.924Z,99448.41
2022-08-16T19:07:39.481Z,99451.72
2022-08-16T19:10:08.162Z,99452.28
2022-08-16T19:12:37.909Z,99459.16
2022-08-16T19:15:31.100Z,99457.84
2022-08-16T19:17:57.848Z,99452.34
2022-08-16T19:20:26.110Z,99456.44
2022-08-16T19:23:05.073Z,99458.22
2022-08-16T19:25:47.592Z,99463.38
2022-08-16T19:28:50.971Z,99462.88
2022-08-16T19:31:18.048Z,99473.00
2022-08-16T19:33:53.721Z,99471.28
2022-08-16T19:36:31.730Z,99475.03
2022-08-16T19:39:04.957Z,99477.94
2022-08-16T19:41:33.456Z,99478.13
2022-08-16T19:44:00.020Z,99479.31
2022-08-16T19:46:26.517Z,99476.16
2022-08-16T19:48:53.478Z,99481.72
2022-08-16T19:51:19.985Z,99477.72
2022-08-16T19:53:46.522Z,99469.94
2022-08-16T19:56:13.210Z,99468.44
2022-08-16T19:58:50.916Z,99476.88
2022-08-16T20:01:26.212Z,99469.59
2022-08-16T20:03:52.716Z,99475.66
2022-08-16T20:06:32.232Z,99467.31
2022-08-16T20:09:05.799Z,99466.28
2022-08-16T20:11:32.412Z,99476.63
2022-08-16T20:13:59.440Z,99469.63
2022-08-16T20:16:26.229Z,99474.81
2022-08-16T20:18:52.870Z,99480.28
2022-08-16T20:21:19.582Z,99476.34
2022-08-16T20:23:46.463Z,99489.75
2022-08-16T20:26:13.305Z,99488.97
2022-08-16T20:28:53.508Z,99492.53
2022-08-16T20:31:22.082Z,99491.97
2022-08-16T20:33:48.620Z,99491.78
2022-08-16T20:36:16.022Z,99493.97
2022-08-16T20:38:45.910Z,99493.25
2022-08-16T20:41:12.877Z,99491.69
2022-08-16T20:43:39.404Z,99487.00
2022-08-16T20:46:06.153Z,99488.50
2022-08-16T20:48:32.670Z,99491.75
2022-08-16T20:50:59.219Z,99494.09
2022-08-16T20:53:25.722Z,99494.34
2022-08-16T20:55:53.525Z,99483.03
2022-08-16T20:58:20.032Z,99481.56
2022-08-16T21:00:47.829Z,99481.06
2022-08-16T21:03:14.559Z,99484.78
2022-08-16T21:05:41.488Z,99478.94
2022-08-16T21:08:50.386Z,99481.34
2022-08-16T21:10:57.191Z,99471.66
2022-08-16T21:13:30.773Z,99476.22
2022-08-16T21:15:58.840Z,99475.72
2022-08-16T21:18:26.019Z,99476.13
2022-08-16T21:20:53.106Z,99475.47
2022-08-16T21:23:20.244Z,99479.25
2022-08-16T21:25:58.119Z,99481.31
2022-08-16T21:28:40.718Z,99484.19
2022-08-16T21:31:09.057Z,99495.06
2022-08-16T21:33:36.061Z,99486.31
2022-08-16T21:36:02.665Z,99492.78
2022-08-16T21:38:30.761Z,99480.38
2022-08-16T21:40:59.327Z,99485.03
2022-08-16T21:43:28.758Z,99490.56
2022-08-16T21:45:55.706Z,99491.59
2022-08-16T21:48:33.926Z,99489.91
2022-08-16T21:51:06.673Z,99494.66
2022-08-16T21:53:33.725Z,99497.59
2022-08-16T21:56:03.063Z,99506.31
2022-08-16T21:58:31.787Z,99504.16
2022-08-16T22:01:00.227Z,99506.38
2022-08-16T22:03:26.868Z,99504.72
2022-08-16T22:06:11.046Z,99505.66
2022-08-16T22:08:48.055Z,99508.66
2022-08-16T22:11:16.886Z,99514.31
2022-08-16T22:13:43.422Z,99520.75
2022-08-16T22:16:18.506Z,99518.56
2022-08-16T22:18:52.091Z,99524.84
2022-08-16T22:21:19.210Z,99523.25
2022-08-16T22:23:45.911Z,99521.78
2022-08-16T22:26:31.104Z,99521.28
2022-08-16T22:29:04.455Z,99527.69
2022-08-16T22:31:31.334Z,99521.00
2022-08-16T22:33:58.071Z,99519.22
2022-08-16T22:36:28.151Z,99517.50
2022-08-16T22:38:59.976Z,99519.09
2022-08-16T22:41:34.442Z,99517.97
2022-08-16T22:44:02.964Z,99520.34
2022-08-16T22:46:30.389Z,99521.25
2022-08-16T22:48:57.504Z,99515.84
2022-08-16T22:51:26.718Z,99516.78
2022-08-16T22:53:54.442Z,99517.00
2022-08-16T22:56:21.687Z,99514.13
2022-08-16T22:58:48.507Z,99518.59
2022-08-16T23:01:20.255Z,99514.63
2022-08-16T23:03:47.018Z,99517.59
2022-08-16T23:06:14.885Z,99512.63
2022-08-16T23:08:43.025Z,99517.09
2022-08-16T23:11:13.451Z,99508.59
2022-08-16T23:13:53.021Z,99505.25
2022-08-16T23:16:32.694Z,99499.34
2022-08-16T23:19:12.411Z,99504.00
2022-08-16T23:21:43.926Z,99507.69
2022-08-16T23:24:12.389Z,99508.59
2022-08-16T23:26:45.676Z,99501.38
2022-08-16T23:29:23.772Z,99497.69
2022-08-16T23:31:58.088Z,99501.31
2022-08-16T23:34:26.920Z,99502.97
2022-08-16T23:36:53.607Z,99504.69
2022-08-16T23:39:22.154Z,99507.22
2022-08-16T23:41:48.692Z,99500.78
2022-08-16T23:44:55.801Z,99507.84
2022-08-16T23:47:01.774Z,99504.34
2022-08-16T23:50:01.699Z,99507.16
2022-08-16T23:52:17.553Z,99506.66
2022-08-16T23:54:44.063Z,99506.00
2022-08-16T23:57:10.894Z,99504.56
2022-08-16T23:59:53.638Z,99503.84
